Cruise inventory

RV Jan Mayen JM6

Cruise plan

Cruise Info. 
Ship name (ship code)RV Jan Mayen (58JM)
Cruise identifierJM6
Cruise period1994-08-08 — 1994-08-12
StatusCompleted
PurposeResearch
ObjectivesICES Reference Number 1994 58 095
Chief scientistKurt Tande (University of Tromsø Norwegian College of Fishery Science)
ProjectOMEX
Ocean/sea areas 
GeneralNorwegian Sea
SpecificNorwegian Sea
Data held at BODC 
Series/Profiles 
28  Bottle station
Quality control flags
Chlorophyll pigment concentrations in water bodies
Silicate concentration parameters in the water column
Vertical spatial coordinates
Nitrate concentration parameters in the water column
Phaeopigment concentrations in the water column
Reference numbers
Phosphate concentration parameters in the water column
Quality control flags
Chlorophyll pigment concentrations in water bodies
Silicate concentration parameters in the water column
Vertical spatial coordinates
Nitrate concentration parameters in the water column
Phaeopigment concentrations in the water column
Reference numbers
Phosphate concentration parameters in the water column

BODC idDate/TimeLocationDoc.
16369591994-08-09 11:08 70° 24' 42" N  17° 13' 0" E  View metadata report for BODC series reference number 1636959
16369601994-08-09 15:11 70° 24' 54" N  17° 10' 0" E  View metadata report for BODC series reference number 1636960
16369721994-08-10 18:24 70° 32' 59" N  16° 45' 0" E  View metadata report for BODC series reference number 1636972
16369841994-08-11 08:45 69° 57' 0" N  16° 45' 0" E  View metadata report for BODC series reference number 1636984
16369961994-08-11 14:05 69° 49' 59" N  17° 46' 0" E  View metadata report for BODC series reference number 1636996
16370111994-08-11 16:39 69° 46' 0" N  17° 40' 0" E  View metadata report for BODC series reference number 1637011
16370231994-08-11 21:08 69° 49' 59" N  17° 4' 0" E  View metadata report for BODC series reference number 1637023
16370351994-08-12 01:38 69° 52' 30" N  16° 36' 0" E  View metadata report for BODC series reference number 1637035
16370471994-08-12 04:41 69° 49' 59" N  16° 0' 0" E  View metadata report for BODC series reference number 1637047
16370591994-08-12 18:05 69° 44' 23" N  16° 46' 59" E  View metadata report for BODC series reference number 1637059
16370601994-08-12 21:35 69° 40' 0" N  17° 30' 24" E  View metadata report for BODC series reference number 1637060
16369231994-08-08 22:05 70° 19' 59" N  18° 56' 59" E  View metadata report for BODC series reference number 1636923
16369351994-08-09 04:04 70° 22' 0" N  18° 11' 59" E  View metadata report for BODC series reference number 1636935
16369471994-08-09 09:06 70° 24' 29" N  17° 18' 0" E  View metadata report for BODC series reference number 1636947
12537011994-08-08 22:05 70° 19' 59" N  18° 56' 59" E  View metadata report for BODC series reference number 1253701
12537131994-08-09 04:04 70° 22' 0" N  18° 11' 59" E  View metadata report for BODC series reference number 1253713
12537251994-08-09 09:06 70° 24' 29" N  17° 18' 0" E  View metadata report for BODC series reference number 1253725
12537371994-08-09 11:08 70° 24' 42" N  17° 13' 0" E  View metadata report for BODC series reference number 1253737
12537491994-08-09 15:11 70° 24' 54" N  17° 10' 0" E  View metadata report for BODC series reference number 1253749
12537501994-08-10 18:24 70° 32' 59" N  16° 45' 0" E  View metadata report for BODC series reference number 1253750
12537621994-08-11 08:45 69° 57' 0" N  16° 45' 0" E  View metadata report for BODC series reference number 1253762
12537741994-08-11 14:05 69° 49' 59" N  17° 46' 0" E  View metadata report for BODC series reference number 1253774
12537861994-08-11 16:39 69° 46' 0" N  17° 40' 0" E  View metadata report for BODC series reference number 1253786
12537981994-08-11 21:08 69° 49' 59" N  17° 4' 0" E  View metadata report for BODC series reference number 1253798
12538051994-08-12 01:38 69° 52' 30" N  16° 36' 0" E  View metadata report for BODC series reference number 1253805
12538171994-08-12 04:41 69° 49' 59" N  16° 0' 0" E  View metadata report for BODC series reference number 1253817
12538291994-08-12 18:05 69° 44' 23" N  16° 46' 59" E  View metadata report for BODC series reference number 1253829
12538301994-08-12 21:35 69° 40' 0" N  17° 30' 24" E  View metadata report for BODC series reference number 1253830
70  CTD/STD cast
Density of the water column
Chlorophyll pigment concentrations in water bodies
Vertical spatial coordinates
Salinity of the water column
Temperature of the water column
Density of the water column
Chlorophyll pigment concentrations in water bodies
Vertical spatial coordinates
Salinity of the water column
Temperature of the water column

BODC idDate/TimeLocationDoc.
9095491994-08-12 16:00 69° 47' 59" N  16° 13' 59" E  View metadata report for BODC series reference number 909549
9095501994-08-12 16:30 69° 46' 59" N  16° 23' 59" E  View metadata report for BODC series reference number 909550
9095621994-08-12 17:00 69° 45' 42" N  16° 34' 59" E  View metadata report for BODC series reference number 909562
9095741994-08-12 17:20 69° 45' 0" N  16° 40' 59" E  View metadata report for BODC series reference number 909574
9095861994-08-12 17:40 69° 44' 30" N  16° 43' 59" E  View metadata report for BODC series reference number 909586
9095981994-08-12 18:00 69° 44' 23" N  16° 46' 59" E  View metadata report for BODC series reference number 909598
9096051994-08-12 19:00 69° 45' 0" N  16° 51' 0" E  View metadata report for BODC series reference number 909605
9096171994-08-12 19:30 69° 45' 17" N  16° 56' 59" E  View metadata report for BODC series reference number 909617
9096291994-08-12 20:00 69° 45' 17" N  17° 7' 59" E  View metadata report for BODC series reference number 909629
9096301994-08-12 21:00 69° 44' 17" N  17° 19' 29" E  View metadata report for BODC series reference number 909630
9096421994-08-12 21:30 69° 40' 0" N  17° 30' 24" E  View metadata report for BODC series reference number 909642
9096541994-08-12 13:00 69° 32' 59" N  15° 43' 59" E  View metadata report for BODC series reference number 909654
9096661994-08-12 14:40 69° 31' 59" N  16° 1' 0" E  View metadata report for BODC series reference number 909666
9096781994-08-10 16:00 70° 32' 59" N  16° 43' 0" E  View metadata report for BODC series reference number 909678
9096911994-08-11 04:00 70° 25' 29" N  17° 1' 59" E  View metadata report for BODC series reference number 909691
9097091994-08-11 08:40 69° 57' 0" N  16° 45' 0" E  View metadata report for BODC series reference number 909709
9097101994-08-11 11:00 69° 55' 59" N  16° 51' 0" E  View metadata report for BODC series reference number 909710
9097221994-08-11 11:30 69° 55' 29" N  16° 56' 59" E  View metadata report for BODC series reference number 909722
9097341994-08-11 12:00 69° 53' 35" N  17° 13' 0" E  View metadata report for BODC series reference number 909734
9097461994-08-11 13:00 69° 52' 0" N  17° 30' 0" E  View metadata report for BODC series reference number 909746
9097581994-08-11 14:00 69° 49' 59" N  17° 46' 0" E  View metadata report for BODC series reference number 909758
9097711994-08-11 16:00 69° 47' 59" N  17° 43' 0" E  View metadata report for BODC series reference number 909771
9097831994-08-11 16:30 69° 46' 0" N  17° 40' 0" E  View metadata report for BODC series reference number 909783
9097951994-08-11 20:00 69° 47' 30" N  17° 22' 59" E  View metadata report for BODC series reference number 909795
9098021994-08-11 21:00 69° 49' 59" N  17° 4' 0" E  View metadata report for BODC series reference number 909802
9098141994-08-12 00:00 69° 51' 29" N  16° 46' 59" E  View metadata report for BODC series reference number 909814
9098261994-08-12 01:00 69° 52' 0" N  16° 41' 59" E  View metadata report for BODC series reference number 909826
9098381994-08-12 01:30 69° 52' 30" N  16° 36' 0" E  View metadata report for BODC series reference number 909838
9098511994-08-12 03:00 69° 53' 6" N  16° 33' 17" E  View metadata report for BODC series reference number 909851
9098631994-08-12 03:20 69° 53' 24" N  16° 31' 0" E  View metadata report for BODC series reference number 909863
9098751994-08-12 03:40 69° 54' 18" N  16° 22' 59" E  View metadata report for BODC series reference number 909875
9098871994-08-12 04:00 69° 49' 59" N  16° 0' 0" E  View metadata report for BODC series reference number 909887
9098991994-08-12 10:00 69° 35' 30" N  15° 5' 59" E  View metadata report for BODC series reference number 909899
9099061994-08-12 11:00 69° 34' 41" N  15° 19' 59" E  View metadata report for BODC series reference number 909906
9099181994-08-12 11:30 69° 34' 0" N  15° 34' 0" E  View metadata report for BODC series reference number 909918
9099311994-08-12 12:00 69° 33' 18" N  15° 37' 0" E  View metadata report for BODC series reference number 909931
9099431994-08-12 12:20 69° 33' 18" N  15° 40' 0" E  View metadata report for BODC series reference number 909943
9099551994-08-12 12:40 69° 33' 18" N  15° 41' 59" E  View metadata report for BODC series reference number 909955
9099671994-08-12 13:20 69° 32' 59" N  15° 46' 0" E  View metadata report for BODC series reference number 909967
9099791994-08-12 13:40 69° 32' 17" N  15° 49' 0" E  View metadata report for BODC series reference number 909979
9099801994-08-12 14:00 69° 32' 17" N  15° 52' 0" E  View metadata report for BODC series reference number 909980
9099921994-08-12 14:20 69° 32' 24" N  15° 55' 0" E  View metadata report for BODC series reference number 909992
9100041994-08-08 18:00 69° 47' 17" N  19° 16' 0" E  View metadata report for BODC series reference number 910004
9100161994-08-08 22:00 70° 19' 59" N  18° 56' 59" E  View metadata report for BODC series reference number 910016
9100281994-08-09 03:00 70° 20' 59" N  18° 34' 59" E  View metadata report for BODC series reference number 910028
9100411994-08-09 04:00 70° 22' 0" N  18° 11' 59" E  View metadata report for BODC series reference number 910041
9100531994-08-09 07:00 70° 22' 59" N  17° 53' 59" E  View metadata report for BODC series reference number 910053
9100651994-08-09 08:00 70° 23' 30" N  17° 36' 0" E  View metadata report for BODC series reference number 910065
9100771994-08-09 09:00 70° 24' 29" N  17° 18' 0" E  View metadata report for BODC series reference number 910077
9100891994-08-09 11:00 70° 24' 42" N  17° 13' 0" E  View metadata report for BODC series reference number 910089
9100901994-08-09 14:00 70° 24' 47" N  17° 11' 17" E  View metadata report for BODC series reference number 910090
9101081994-08-09 15:00 70° 24' 54" N  17° 10' 0" E  View metadata report for BODC series reference number 910108
9101211994-08-09 20:00 70° 25' 0" N  17° 6' 0" E  View metadata report for BODC series reference number 910121
9101331994-08-09 22:00 70° 25' 59" N  17° 1' 0" E  View metadata report for BODC series reference number 910133
9101451994-08-10 00:00 70° 28' 0" N  16° 58' 59" E  View metadata report for BODC series reference number 910145
9101571994-08-10 02:00 70° 28' 59" N  16° 56' 59" E  View metadata report for BODC series reference number 910157
9101691994-08-10 04:00 70° 30' 0" N  16° 56' 59" E  View metadata report for BODC series reference number 910169
9101701994-08-10 06:00 70° 30' 0" N  16° 58' 0" E  View metadata report for BODC series reference number 910170
9101821994-08-10 08:00 70° 30' 0" N  16° 52' 0" E  View metadata report for BODC series reference number 910182
9101941994-08-10 10:00 70° 30' 0" N  16° 46' 0" E  View metadata report for BODC series reference number 910194
9102011994-08-10 12:00 70° 31' 0" N  16° 43' 59" E  View metadata report for BODC series reference number 910201
9102131994-08-10 14:00 70° 31' 59" N  16° 43' 0" E  View metadata report for BODC series reference number 910213
9102251994-08-10 18:00 70° 32' 59" N  16° 45' 0" E  View metadata report for BODC series reference number 910225
9102371994-08-10 20:00 70° 27' 0" N  16° 0' 0" E  View metadata report for BODC series reference number 910237
9102491994-08-10 23:00 70° 25' 59" N  16° 30' 0" E  View metadata report for BODC series reference number 910249
9102501994-08-11 01:00 70° 24' 0" N  17° 11' 59" E  View metadata report for BODC series reference number 910250
9102621994-08-11 03:00 70° 25' 0" N  17° 6' 0" E  View metadata report for BODC series reference number 910262
9102741994-08-11 07:00 69° 58' 0" N  16° 33' 0" E  View metadata report for BODC series reference number 910274
9102861994-08-11 08:00 69° 57' 29" N  16° 37' 59" E  View metadata report for BODC series reference number 910286
9102981994-08-11 08:20 69° 57' 17" N  16° 40' 59" E  View metadata report for BODC series reference number 910298
Discrete samples 
14  CTD frame plus rosette samplerTerrestrial detritus in the water column suspended particulate material
Particulate total and organic carbon concentrations in the water column
Particulate total and organic nitrogen concentrations in the water column
Zooplankton taxonomy-related abundance per unit volume of the water column
Density of the water column
Biological detritus in the water column suspended particulate material
Chlorophyll pigment concentrations in water bodies
Phytoplankton taxonomic abundance in water bodies
Silicate concentration parameters in the water column
Salinity of the water column
Macroalgae generic abundance in water bodies
Zooplankton non taxonomy-related abundance per unit volume of the water column
Nitrate concentration parameters in the water column
Temperature of the water column
Phaeopigment concentrations in the water column
Phytoplankton generic abundance in water bodies
Microzooplankton taxonomic abundance in water bodies
Phosphate concentration parameters in the water column
1  Drifting rig with sediment trapsSedimentation flux of carbon, nitrogen or organic matter in the water column
Sedimentation flux of identified biota expressed as carbon in the water column
Sedimentation flux of pigments in the water column
Sedimentation flux of identified biota in the water column